createdAt,value
2016-11-21T00:00:28.277Z,986.01
2016-11-21T00:01:28.293Z,985.98
2016-11-21T00:02:28.311Z,985.98
2016-11-21T00:03:28.325Z,985.93
2016-11-21T00:04:28.351Z,985.92
2016-11-21T00:05:28.364Z,985.95
2016-11-21T00:06:28.387Z,985.95
2016-11-21T00:07:28.395Z,985.93
2016-11-21T00:08:28.412Z,985.9
2016-11-21T00:09:28.429Z,985.89
2016-11-21T00:10:28.446Z,985.92
2016-11-21T00:11:28.461Z,985.88
2016-11-21T00:12:28.479Z,985.96
2016-11-21T00:13:28.494Z,985.91
2016-11-21T00:14:28.514Z,985.92
2016-11-21T00:15:28.532Z,985.83
2016-11-21T00:16:28.547Z,985.87
2016-11-21T00:17:28.565Z,985.93
2016-11-21T00:18:28.587Z,985.93
2016-11-21T00:19:28.595Z,985.97
2016-11-21T00:20:28.614Z,985.97
2016-11-21T00:21:28.632Z,985.95
2016-11-21T00:22:28.655Z,985.89
2016-11-21T00:23:28.669Z,985.89
2016-11-21T00:24:28.691Z,985.91
2016-11-21T00:25:28.698Z,985.89
2016-11-21T00:26:28.724Z,985.94
2016-11-21T00:27:28.734Z,985.93
2016-11-21T00:28:28.750Z,985.92
2016-11-21T00:29:28.767Z,985.91
2016-11-21T00:30:28.787Z,985.9
2016-11-21T00:31:28.803Z,985.95
2016-11-21T00:32:28.816Z,985.86
2016-11-21T00:33:28.835Z,985.87
2016-11-21T00:34:28.859Z,985.88
2016-11-21T00:35:28.866Z,985.9
2016-11-21T00:36:28.883Z,985.83
2016-11-21T00:37:28.900Z,985.86
2016-11-21T00:38:28.917Z,985.87
2016-11-21T00:39:28.934Z,985.81
2016-11-21T00:40:28.960Z,985.85
2016-11-21T00:41:28.972Z,985.88
2016-11-21T00:42:28.986Z,985.9
2016-11-21T00:43:29.003Z,985.88
2016-11-21T00:44:29.021Z,985.91
2016-11-21T00:45:29.036Z,985.86
2016-11-21T00:46:29.063Z,985.89
2016-11-21T00:47:29.072Z,985.87
2016-11-21T00:48:29.087Z,985.89
2016-11-21T00:49:29.105Z,985.77
2016-11-21T00:50:29.123Z,985.9
2016-11-21T00:51:29.138Z,985.92
2016-11-21T00:52:29.158Z,985.87
2016-11-21T00:53:29.174Z,985.94
2016-11-21T00:54:29.186Z,985.94
2016-11-21T00:55:29.205Z,985.9
2016-11-21T00:56:29.231Z,985.86
2016-11-21T00:57:29.238Z,985.94
2016-11-21T00:58:29.263Z,985.9
2016-11-21T00:59:29.269Z,985.94
2016-11-21T01:00:29.295Z,985.91
2016-11-21T01:01:29.306Z,985.9
2016-11-21T01:02:29.320Z,985.87
2016-11-21T01:03:29.338Z,985.93
2016-11-21T01:04:29.363Z,985.88
2016-11-21T01:05:29.373Z,985.9
2016-11-21T01:06:29.389Z,985.87
2016-11-21T01:07:29.408Z,985.84
2016-11-21T01:08:29.420Z,985.81
2016-11-21T01:09:29.439Z,985.84
2016-11-21T01:10:29.451Z,985.77
2016-11-21T01:11:29.472Z,985.78
2016-11-21T01:12:29.489Z,985.75
2016-11-21T01:13:29.504Z,985.76
2016-11-21T01:14:29.531Z,985.7
2016-11-21T01:15:29.539Z,985.72
2016-11-21T01:16:29.555Z,985.72
2016-11-21T01:17:29.569Z,985.71
2016-11-21T01:18:29.599Z,985.73
2016-11-21T01:19:29.603Z,985.74
2016-11-21T01:20:29.617Z,985.77
2016-11-21T01:21:29.638Z,985.73
2016-11-21T01:22:29.653Z,985.76
2016-11-21T01:23:29.670Z,985.79
2016-11-21T01:24:29.688Z,985.78
2016-11-21T01:25:29.703Z,985.81
2016-11-21T01:26:29.720Z,985.79
2016-11-21T01:27:29.732Z,985.84
2016-11-21T01:28:29.752Z,985.84
2016-11-21T01:29:29.766Z,985.85
2016-11-21T01:30:29.791Z,985.78
2016-11-21T01:31:29.801Z,985.75
2016-11-21T01:32:29.820Z,985.73
2016-11-21T01:33:29.834Z,985.78
2016-11-21T01:34:29.854Z,985.78
2016-11-21T01:35:29.870Z,985.78
2016-11-21T01:36:29.886Z,985.79
2016-11-21T01:37:29.903Z,985.81
2016-11-21T01:38:29.920Z,985.78
2016-11-21T01:39:29.934Z,985.81
2016-11-21T01:40:29.953Z,985.82
2016-11-21T01:41:29.968Z,985.78
2016-11-21T01:42:29.986Z,985.77
2016-11-21T01:43:29.999Z,985.8
2016-11-21T01:44:30.016Z,985.85
2016-11-21T01:45:30.037Z,985.77
2016-11-21T01:46:30.063Z,985.73
2016-11-21T01:47:30.070Z,985.79
2016-11-21T01:48:30.082Z,985.8
2016-11-21T01:49:30.103Z,985.82
2016-11-21T01:50:30.118Z,985.81
2016-11-21T01:51:30.135Z,985.89
2016-11-21T01:52:30.155Z,985.93
2016-11-21T01:53:30.165Z,985.92
2016-11-21T01:54:30.181Z,985.9
2016-11-21T01:55:30.201Z,985.9
2016-11-21T01:56:30.217Z,985.93
2016-11-21T01:57:30.235Z,985.95
2016-11-21T01:58:30.249Z,985.89
2016-11-21T01:59:30.263Z,985.97
2016-11-21T02:00:30.285Z,985.93
2016-11-21T02:01:30.301Z,985.91
2016-11-21T02:02:30.323Z,985.91
2016-11-21T02:03:30.334Z,985.97
2016-11-21T02:04:30.350Z,985.91
2016-11-21T02:05:30.368Z,985.92
2016-11-21T02:06:30.391Z,985.9
2016-11-21T02:07:30.396Z,985.95
2016-11-21T02:08:30.415Z,985.87
2016-11-21T02:09:30.431Z,985.86
2016-11-21T02:10:30.447Z,985.85
2016-11-21T02:11:30.465Z,985.9
2016-11-21T02:12:30.480Z,985.94
2016-11-21T02:13:30.496Z,985.88
2016-11-21T02:14:30.516Z,985.9
2016-11-21T02:15:30.531Z,985.9
2016-11-21T02:16:30.547Z,985.93
2016-11-21T02:17:30.566Z,986.03
2016-11-21T02:18:30.577Z,985.98
2016-11-21T02:19:30.596Z,986.01
2016-11-21T02:20:30.617Z,986.05
2016-11-21T02:21:30.632Z,986.05
2016-11-21T02:22:30.648Z,986.05
2016-11-21T02:23:30.663Z,986.03
2016-11-21T02:24:30.682Z,986.03
2016-11-21T02:25:30.697Z,986.04
2016-11-21T02:26:30.714Z,986.03
2016-11-21T02:27:30.730Z,986.03
2016-11-21T02:28:30.759Z,986.03
2016-11-21T02:29:30.765Z,986.04
2016-11-21T02:30:30.783Z,985.99
2016-11-21T02:31:30.799Z,985.99
2016-11-21T02:32:30.816Z,986.01
2016-11-21T02:33:30.827Z,985.97
2016-11-21T02:34:30.845Z,986.01
2016-11-21T02:35:30.862Z,985.98
2016-11-21T02:36:30.878Z,986
2016-11-21T02:37:30.895Z,986.03
2016-11-21T02:38:30.916Z,985.95
2016-11-21T02:39:30.929Z,986.03
2016-11-21T02:40:30.952Z,986.01
2016-11-21T02:41:30.966Z,986.02
2016-11-21T02:42:30.994Z,986.03
2016-11-21T02:43:30.998Z,986.07
2016-11-21T02:44:31.015Z,986.06
2016-11-21T02:45:31.033Z,986.08
2016-11-21T02:46:31.055Z,986
2016-11-21T02:47:31.064Z,986.08
2016-11-21T02:48:31.083Z,986.1
2016-11-21T02:49:31.100Z,986.07
2016-11-21T02:50:31.123Z,986.09
2016-11-21T02:51:31.130Z,986.1
2016-11-21T02:52:31.148Z,986.08
2016-11-21T02:53:31.164Z,986.04
2016-11-21T02:54:31.187Z,986.04
2016-11-21T02:55:31.195Z,986.1
2016-11-21T02:56:31.215Z,986.09
2016-11-21T02:57:31.236Z,986.03
2016-11-21T02:58:31.246Z,986.1
2016-11-21T02:59:31.264Z,986.06
2016-11-21T03:00:31.287Z,986.03
2016-11-21T03:01:31.300Z,986.01
2016-11-21T03:02:31.319Z,986.01
2016-11-21T03:03:31.332Z,986.01
2016-11-21T03:04:31.351Z,986.06
2016-11-21T03:05:31.366Z,986
2016-11-21T03:06:31.385Z,985.97
2016-11-21T03:07:31.402Z,985.99
2016-11-21T03:08:31.415Z,985.97
2016-11-21T03:09:31.435Z,986.05
2016-11-21T03:10:31.450Z,986.01
2016-11-21T03:11:31.467Z,986.02
2016-11-21T03:12:31.485Z,986.08
2016-11-21T03:13:31.506Z,986.16
2016-11-21T03:14:31.524Z,986.15
2016-11-21T03:15:31.538Z,986.21
2016-11-21T03:16:31.555Z,986.13
2016-11-21T03:17:31.572Z,986.14
2016-11-21T03:18:31.592Z,986.14
2016-11-21T03:19:31.605Z,986.07
2016-11-21T03:20:31.624Z,986.03
2016-11-21T03:21:31.643Z,986.09
2016-11-21T03:22:31.678Z,986.05
2016-11-21T03:23:31.673Z,986.09
2016-11-21T03:24:31.693Z,986.14
2016-11-21T03:25:31.710Z,986.08
2016-11-21T03:26:31.728Z,986.14
2016-11-21T03:27:31.745Z,986.16
2016-11-21T03:28:31.762Z,986.2
2016-11-21T03:29:31.778Z,986.26
2016-11-21T03:30:31.797Z,986.24
2016-11-21T03:31:31.808Z,986.3
2016-11-21T03:32:31.830Z,986.33
2016-11-21T03:33:31.851Z,986.32
2016-11-21T03:34:31.863Z,986.33
2016-11-21T03:35:31.884Z,986.3
2016-11-21T03:36:31.898Z,986.3
2016-11-21T03:37:31.917Z,986.32
2016-11-21T03:38:31.932Z,986.36
2016-11-21T03:39:31.952Z,986.34
2016-11-21T03:40:31.964Z,986.29
2016-11-21T03:41:31.984Z,986.3
2016-11-21T03:42:32.000Z,986.33
2016-11-21T03:43:32.018Z,986.34
2016-11-21T03:44:32.037Z,986.3
2016-11-21T03:45:32.054Z,986.27
2016-11-21T03:46:32.070Z,986.25
2016-11-21T03:47:32.088Z,986.31
2016-11-21T03:48:32.104Z,986.3
2016-11-21T03:49:32.124Z,986.34
2016-11-21T03:50:32.150Z,986.33
2016-11-21T03:51:32.158Z,986.29
2016-11-21T03:52:32.173Z,986.3
2016-11-21T03:53:32.188Z,986.25
2016-11-21T03:54:32.216Z,986.2
2016-11-21T03:55:32.226Z,986.23
2016-11-21T03:56:32.242Z,986.24
2016-11-21T03:57:32.257Z,986.21
2016-11-21T03:58:32.277Z,986.18
2016-11-21T03:59:32.292Z,986.22
2016-11-21T04:01:32.329Z,986.31
2016-11-21T04:02:32.344Z,986.25
2016-11-21T04:03:32.365Z,986.24
2016-11-21T04:04:32.379Z,986.22
2016-11-21T04:05:32.398Z,986.24
2016-11-21T04:06:32.412Z,986.28
2016-11-21T04:07:32.434Z,986.25
2016-11-21T04:08:32.449Z,986.26
2016-11-21T04:09:32.466Z,986.2
2016-11-21T04:10:32.481Z,986.29
2016-11-21T04:11:32.500Z,986.25
2016-11-21T04:12:32.516Z,986.26
2016-11-21T04:13:32.538Z,986.25
2016-11-21T04:14:32.553Z,986.25
2016-11-21T04:15:32.572Z,986.27
2016-11-21T04:16:32.582Z,986.26
2016-11-21T04:17:32.604Z,986.27
2016-11-21T04:18:32.622Z,986.28
2016-11-21T04:19:32.638Z,986.27
2016-11-21T04:20:32.654Z,986.27
2016-11-21T04:21:32.670Z,986.26
2016-11-21T04:22:32.689Z,986.34
2016-11-21T04:23:32.706Z,986.32
2016-11-21T04:24:32.721Z,986.31
2016-11-21T04:25:32.738Z,986.33
2016-11-21T04:26:32.758Z,986.42
2016-11-21T04:27:32.771Z,986.43
2016-11-21T04:28:32.787Z,986.5
2016-11-21T04:29:32.808Z,986.47
2016-11-21T04:30:32.825Z,986.47
2016-11-21T04:31:32.841Z,986.46
2016-11-21T04:32:32.859Z,986.4
2016-11-21T04:33:32.876Z,986.37
2016-11-21T04:34:32.897Z,986.4
2016-11-21T04:35:32.911Z,986.37
2016-11-21T04:36:32.927Z,986.33
2016-11-21T04:37:32.945Z,986.35
2016-11-21T04:38:32.961Z,986.32
2016-11-21T04:39:32.979Z,986.33
2016-11-21T04:40:32.993Z,986.37
2016-11-21T04:41:33.014Z,986.4
2016-11-21T04:42:33.028Z,986.35
2016-11-21T04:43:33.046Z,986.35
2016-11-21T04:44:33.062Z,986.33
2016-11-21T04:45:33.083Z,986.31
2016-11-21T04:46:33.096Z,986.32
2016-11-21T04:47:33.120Z,986.37
2016-11-21T04:48:33.134Z,986.33
2016-11-21T04:49:33.155Z,986.33
2016-11-21T04:50:33.169Z,986.31
2016-11-21T04:51:33.188Z,986.38
2016-11-21T04:52:33.202Z,986.45
2016-11-21T04:53:33.221Z,986.43
2016-11-21T04:54:33.238Z,986.45
2016-11-21T04:55:33.257Z,986.5
2016-11-21T04:56:33.272Z,986.46
2016-11-21T04:57:33.287Z,986.5
2016-11-21T04:58:33.306Z,986.47
2016-11-21T04:59:33.323Z,986.5
2016-11-21T05:00:33.339Z,986.5
2016-11-21T05:01:33.358Z,986.48
2016-11-21T05:02:33.375Z,986.51
2016-11-21T05:03:33.387Z,986.49
2016-11-21T05:04:33.412Z,986.54
2016-11-21T05:05:33.426Z,986.5
2016-11-21T05:06:33.442Z,986.47
2016-11-21T05:07:33.460Z,986.48
2016-11-21T05:08:33.477Z,986.45
2016-11-21T05:09:33.492Z,986.43
2016-11-21T05:10:33.509Z,986.4
2016-11-21T05:11:33.529Z,986.37
2016-11-21T05:12:33.544Z,986.43
2016-11-21T05:13:33.561Z,986.39
2016-11-21T05:14:33.577Z,986.39
2016-11-21T05:15:33.594Z,986.41
2016-11-21T05:16:33.615Z,986.42
2016-11-21T05:17:33.632Z,986.46
2016-11-21T05:18:33.646Z,986.48
2016-11-21T05:19:33.662Z,986.39
2016-11-21T05:20:33.678Z,986.43
2016-11-21T05:21:33.699Z,986.44
2016-11-21T05:22:33.715Z,986.44
2016-11-21T05:23:33.736Z,986.49
2016-11-21T05:24:33.750Z,986.46
2016-11-21T05:25:33.768Z,986.51
2016-11-21T05:26:33.784Z,986.5
2016-11-21T05:27:33.805Z,986.57
2016-11-21T05:28:33.820Z,986.45
2016-11-21T05:29:33.836Z,986.52
2016-11-21T05:30:33.854Z,986.5
2016-11-21T05:31:33.873Z,986.51
2016-11-21T05:32:33.886Z,986.54
2016-11-21T05:33:33.907Z,986.54
2016-11-21T05:34:33.922Z,986.55
2016-11-21T05:35:33.942Z,986.5
2016-11-21T05:36:33.960Z,986.53
2016-11-21T05:37:33.975Z,986.44
2016-11-21T05:38:33.995Z,986.46
2016-11-21T05:39:34.012Z,986.43
2016-11-21T05:40:34.027Z,986.37
2016-11-21T05:41:34.043Z,986.38
2016-11-21T05:42:34.059Z,986.3
2016-11-21T05:43:34.077Z,986.32
2016-11-21T05:44:34.096Z,986.34
2016-11-21T05:45:34.115Z,986.3
2016-11-21T05:46:34.128Z,986.34
2016-11-21T05:47:34.146Z,986.31
2016-11-21T05:48:34.164Z,986.31
2016-11-21T05:49:34.185Z,986.28
2016-11-21T05:50:34.198Z,986.32
2016-11-21T05:51:34.215Z,986.37
2016-11-21T05:52:34.235Z,986.27
2016-11-21T05:53:34.252Z,986.23
2016-11-21T05:54:34.268Z,986.24
2016-11-21T05:55:34.287Z,986.24
2016-11-21T05:56:34.303Z,986.22
2016-11-21T05:57:34.321Z,986.25
2016-11-21T05:58:34.333Z,986.29
2016-11-21T05:59:34.354Z,986.29
2016-11-21T06:00:34.368Z,986.27
2016-11-21T06:01:34.388Z,986.23
2016-11-21T06:02:34.402Z,986.22
2016-11-21T06:03:34.424Z,986.2
2016-11-21T06:04:34.435Z,986.27
2016-11-21T06:05:34.457Z,986.31
2016-11-21T06:06:34.475Z,986.31
2016-11-21T06:07:34.490Z,986.34
2016-11-21T06:08:34.508Z,986.36
2016-11-21T06:09:34.524Z,986.34
2016-11-21T06:10:34.541Z,986.37
2016-11-21T06:11:34.558Z,986.37
2016-11-21T06:12:34.577Z,986.38
2016-11-21T06:13:34.592Z,986.4
2016-11-21T06:14:34.612Z,986.45
2016-11-21T06:15:34.625Z,986.41
2016-11-21T06:16:34.642Z,986.38
2016-11-21T06:17:34.666Z,986.42
2016-11-21T06:18:34.681Z,986.42
2016-11-21T06:19:34.693Z,986.44
2016-11-21T06:20:34.716Z,986.42
2016-11-21T06:21:34.734Z,986.46
2016-11-21T06:22:34.749Z,986.48
2016-11-21T06:23:34.767Z,986.48
2016-11-21T06:24:34.781Z,986.52
2016-11-21T06:25:34.802Z,986.5
2016-11-21T06:26:34.815Z,986.49
2016-11-21T06:27:34.836Z,986.52
2016-11-21T06:28:34.853Z,986.49
2016-11-21T06:29:34.869Z,986.51
2016-11-21T06:30:34.885Z,986.5
2016-11-21T06:31:34.903Z,986.48
2016-11-21T06:32:34.923Z,986.47
2016-11-21T06:33:34.938Z,986.55
2016-11-21T06:34:34.954Z,986.56
2016-11-21T06:35:34.975Z,986.58
2016-11-21T06:36:34.991Z,986.53
2016-11-21T06:37:35.006Z,986.55
2016-11-21T06:38:35.023Z,986.54
2016-11-21T06:39:35.041Z,986.51
2016-11-21T06:40:35.058Z,986.52
2016-11-21T06:41:35.076Z,986.46
2016-11-21T06:42:35.094Z,986.47
2016-11-21T06:43:35.108Z,986.44
2016-11-21T06:44:35.128Z,986.49
2016-11-21T06:45:35.145Z,986.46
2016-11-21T06:46:35.161Z,986.51
2016-11-21T06:47:35.177Z,986.49
2016-11-21T06:48:35.196Z,986.48
2016-11-21T06:49:35.213Z,986.55
2016-11-21T06:50:35.230Z,986.51
2016-11-21T06:51:35.249Z,986.6
2016-11-21T06:52:35.264Z,986.54
2016-11-21T06:53:35.281Z,986.6
2016-11-21T06:54:35.298Z,986.63
2016-11-21T06:55:35.317Z,986.66
2016-11-21T06:56:35.333Z,986.62
2016-11-21T06:57:35.352Z,986.58
2016-11-21T06:58:35.365Z,986.63
2016-11-21T06:59:35.383Z,986.7
2016-11-21T07:00:35.403Z,986.64
2016-11-21T07:01:35.420Z,986.64
2016-11-21T07:02:35.435Z,986.66
2016-11-21T07:03:35.450Z,986.68
2016-11-21T07:04:35.470Z,986.7
2016-11-21T07:05:35.488Z,986.66
2016-11-21T07:06:35.506Z,986.65
2016-11-21T07:07:35.526Z,986.66
2016-11-21T07:08:35.538Z,986.6
2016-11-21T07:09:35.559Z,986.66
2016-11-21T07:10:35.572Z,986.63
2016-11-21T07:11:35.590Z,986.66
2016-11-21T07:12:35.607Z,986.65
2016-11-21T07:13:35.623Z,986.64
2016-11-21T07:14:35.642Z,986.63
2016-11-21T07:15:35.663Z,986.6
2016-11-21T07:16:35.679Z,986.57
2016-11-21T07:17:35.695Z,986.66
2016-11-21T07:18:35.715Z,986.62
2016-11-21T07:19:35.731Z,986.63
2016-11-21T07:20:35.746Z,986.64
2016-11-21T07:21:35.764Z,986.65
2016-11-21T07:22:35.782Z,986.68
2016-11-21T07:23:35.798Z,986.66
2016-11-21T07:24:35.813Z,986.67
2016-11-21T07:25:35.833Z,986.69
2016-11-21T07:26:35.851Z,986.68
2016-11-21T07:27:35.868Z,986.65
2016-11-21T07:28:35.888Z,986.62
2016-11-21T07:29:35.903Z,986.68
2016-11-21T07:30:35.923Z,986.61
2016-11-21T07:31:35.937Z,986.66
2016-11-21T07:32:35.956Z,986.61
2016-11-21T07:33:35.970Z,986.69
2016-11-21T07:34:35.986Z,986.63
2016-11-21T07:35:36.006Z,986.61
2016-11-21T07:36:36.020Z,986.68
2016-11-21T07:37:36.038Z,986.67
2016-11-21T07:38:36.054Z,986.69
2016-11-21T07:39:36.072Z,986.69
2016-11-21T07:40:36.089Z,986.67
2016-11-21T07:41:36.109Z,986.66
2016-11-21T07:42:36.125Z,986.7
2016-11-21T07:43:36.143Z,986.74
2016-11-21T07:44:36.160Z,986.81
2016-11-21T07:45:36.180Z,986.76
2016-11-21T07:46:36.193Z,986.81
2016-11-21T07:47:36.213Z,986.78
2016-11-21T07:48:36.228Z,986.84
2016-11-21T07:49:36.247Z,986.81
2016-11-21T07:50:36.262Z,986.84
2016-11-21T07:51:36.280Z,986.86
2016-11-21T07:52:36.295Z,986.84
2016-11-21T07:53:36.319Z,986.83
2016-11-21T07:54:36.333Z,986.84
2016-11-21T07:55:36.348Z,986.87
2016-11-21T07:56:36.373Z,986.92
2016-11-21T07:57:36.384Z,986.84
2016-11-21T07:58:36.408Z,986.85
2016-11-21T07:59:36.420Z,986.91
2016-11-21T08:00:36.438Z,986.93
2016-11-21T08:01:36.457Z,986.85
2016-11-21T08:02:36.473Z,986.89
2016-11-21T08:03:36.489Z,986.91
2016-11-21T08:04:36.509Z,986.9
2016-11-21T08:05:36.526Z,986.86
2016-11-21T08:06:36.541Z,986.91
2016-11-21T08:07:36.559Z,986.93
2016-11-21T08:08:36.574Z,986.95
2016-11-21T08:09:36.590Z,986.94
2016-11-21T08:10:36.614Z,986.95
2016-11-21T08:11:36.632Z,986.99
2016-11-21T08:12:36.644Z,986.97
2016-11-21T08:13:36.664Z,987.05
2016-11-21T08:14:36.681Z,986.99
2016-11-21T08:15:36.698Z,986.93
2016-11-21T08:16:36.717Z,986.9
2016-11-21T08:17:36.734Z,986.88
2016-11-21T08:18:36.749Z,986.9
2016-11-21T08:19:36.770Z,986.91
2016-11-21T08:20:36.788Z,986.91
2016-11-21T08:21:36.803Z,986.83
2016-11-21T08:22:36.823Z,986.82
2016-11-21T08:23:36.840Z,986.86
2016-11-21T08:24:36.857Z,986.88
2016-11-21T08:25:36.870Z,986.86
2016-11-21T08:26:36.890Z,986.85
2016-11-21T08:27:36.908Z,986.81
2016-11-21T08:28:36.924Z,986.82
2016-11-21T08:29:36.940Z,986.81
2016-11-21T08:30:36.960Z,986.79
2016-11-21T08:31:36.974Z,986.78
2016-11-21T08:32:36.993Z,986.81
2016-11-21T08:33:37.013Z,986.7
2016-11-21T08:34:37.032Z,986.64
2016-11-21T08:35:37.051Z,986.69
2016-11-21T08:36:37.066Z,986.75
2016-11-21T08:37:37.084Z,986.71
2016-11-21T08:38:37.100Z,986.67
2016-11-21T08:39:37.120Z,986.59
2016-11-21T08:40:37.137Z,986.65
2016-11-21T08:41:37.154Z,986.58
2016-11-21T08:42:37.171Z,986.66
2016-11-21T08:43:37.189Z,986.58
2016-11-21T08:44:37.209Z,986.51
2016-11-21T08:45:37.226Z,986.62
2016-11-21T08:46:37.242Z,986.61
2016-11-21T08:47:37.262Z,986.58
2016-11-21T08:48:37.275Z,986.56
2016-11-21T08:49:37.293Z,986.63
2016-11-21T08:50:37.312Z,986.65
2016-11-21T08:51:37.333Z,986.67
2016-11-21T08:52:37.346Z,986.65
2016-11-21T08:53:37.364Z,986.62
2016-11-21T08:54:37.386Z,986.65
2016-11-21T08:55:37.406Z,986.69
2016-11-21T08:56:37.419Z,986.75
2016-11-21T08:57:37.435Z,986.68
2016-11-21T08:58:37.456Z,986.69
2016-11-21T08:59:37.473Z,986.63
2016-11-21T09:00:37.493Z,986.7
2016-11-21T09:01:37.509Z,986.68
2016-11-21T09:02:37.531Z,986.69
2016-11-21T09:03:37.546Z,986.6
2016-11-21T09:04:37.566Z,986.68
2016-11-21T09:05:37.585Z,986.67
2016-11-21T09:06:37.601Z,986.76
2016-11-21T09:07:37.619Z,986.77
2016-11-21T09:08:37.635Z,986.87
2016-11-21T09:09:37.654Z,986.85
2016-11-21T09:10:37.672Z,986.9
2016-11-21T09:11:37.693Z,986.93
2016-11-21T09:12:37.710Z,986.88
2016-11-21T09:13:37.731Z,986.92
2016-11-21T09:14:37.747Z,986.89
2016-11-21T09:15:37.763Z,986.94
2016-11-21T09:16:37.784Z,986.92
2016-11-21T09:17:37.801Z,986.88
2016-11-21T09:18:37.819Z,986.97
2016-11-21T09:19:37.840Z,987
2016-11-21T09:20:37.855Z,986.98
2016-11-21T09:21:37.877Z,987
2016-11-21T09:22:37.891Z,986.94
2016-11-21T09:23:37.915Z,986.95
2016-11-21T09:24:37.929Z,986.96
2016-11-21T09:25:37.947Z,987.02
2016-11-21T09:26:37.966Z,987.05
2016-11-21T09:27:37.985Z,987.08
2016-11-21T09:28:38.003Z,987.12
2016-11-21T09:29:38.021Z,987.19
2016-11-21T09:30:38.038Z,987.12
2016-11-21T09:31:38.059Z,987.13
2016-11-21T09:32:38.076Z,987.06
2016-11-21T09:33:38.137Z,987.09
2016-11-21T09:34:38.137Z,987.11
2016-11-21T09:35:38.172Z,987.18
2016-11-21T09:36:38.150Z,987.13
2016-11-21T09:37:38.173Z,987.17
2016-11-21T09:38:38.191Z,987.11
2016-11-21T09:39:38.207Z,987.14
2016-11-21T09:40:38.222Z,987.17
2016-11-21T09:41:38.245Z,987.17
2016-11-21T09:42:38.263Z,987.13
2016-11-21T09:43:38.281Z,987.08
2016-11-21T09:44:38.299Z,987.11
2016-11-21T09:45:38.314Z,987.06
2016-11-21T09:46:38.337Z,987.07
2016-11-21T09:47:38.351Z,986.99
2016-11-21T09:48:38.369Z,986.97
2016-11-21T09:49:38.390Z,986.94
2016-11-21T09:50:38.411Z,986.96
2016-11-21T09:51:38.424Z,986.92
2016-11-21T09:52:38.441Z,986.9
2016-11-21T09:53:38.462Z,986.88
2016-11-21T09:54:38.482Z,986.8
2016-11-21T09:55:38.496Z,986.83
2016-11-21T09:56:38.518Z,986.83
2016-11-21T09:57:38.534Z,986.84
2016-11-21T09:58:38.553Z,986.83
2016-11-21T09:59:38.572Z,986.84
2016-11-21T10:00:38.588Z,986.84
2016-11-21T10:01:38.605Z,986.92
2016-11-21T10:02:38.622Z,986.93
2016-11-21T10:03:38.644Z,986.87
2016-11-21T10:04:38.659Z,986.83
2016-11-21T10:05:38.676Z,986.77
2016-11-21T10:06:38.695Z,986.77
2016-11-21T10:07:38.719Z,986.77
2016-11-21T10:08:38.731Z,986.82
2016-11-21T10:09:38.749Z,986.77
2016-11-21T10:10:38.768Z,986.82
2016-11-21T10:11:38.786Z,986.82
2016-11-21T10:12:38.802Z,986.78
2016-11-21T10:13:38.825Z,986.78
2016-11-21T10:14:38.840Z,986.69
2016-11-21T10:15:38.861Z,986.61
2016-11-21T10:16:38.878Z,986.58
2016-11-21T10:17:38.913Z,986.59
2016-11-21T10:18:38.912Z,986.6
2016-11-21T10:19:38.930Z,986.66
2016-11-21T10:20:38.949Z,986.67
2016-11-21T10:21:38.968Z,986.55
2016-11-21T10:22:38.987Z,986.5
2016-11-21T10:23:39.006Z,986.5
2016-11-21T10:24:39.023Z,986.42
2016-11-21T10:25:39.040Z,986.46
2016-11-21T10:26:39.056Z,986.48
2016-11-21T10:27:39.072Z,986.46
2016-11-21T10:28:39.095Z,986.48
2016-11-21T10:29:39.109Z,986.48
2016-11-21T10:30:39.130Z,986.55
2016-11-21T10:31:39.150Z,986.53
2016-11-21T10:32:39.169Z,986.5
2016-11-21T10:33:39.182Z,986.48
2016-11-21T10:34:39.202Z,986.43
2016-11-21T10:35:39.219Z,986.44
2016-11-21T10:36:39.237Z,986.42
2016-11-21T10:37:39.258Z,986.37
2016-11-21T10:38:39.276Z,986.35
2016-11-21T10:39:39.291Z,986.31
2016-11-21T10:40:39.312Z,986.32
2016-11-21T10:41:39.330Z,986.31
2016-11-21T10:42:39.346Z,986.34
2016-11-21T10:43:39.365Z,986.24
2016-11-21T10:44:39.387Z,986.33
2016-11-21T10:45:39.400Z,986.33
2016-11-21T10:46:39.423Z,986.26
2016-11-21T10:47:39.441Z,986.28
2016-11-21T10:48:39.456Z,986.29
2016-11-21T10:49:39.476Z,986.31
2016-11-21T10:50:39.492Z,986.33
2016-11-21T10:51:39.514Z,986.32
2016-11-21T10:52:39.532Z,986.39
2016-11-21T10:53:39.549Z,986.45
2016-11-21T10:54:39.567Z,986.47
2016-11-21T10:55:39.585Z,986.46
2016-11-21T10:56:39.605Z,986.47
2016-11-21T10:57:39.621Z,986.47
2016-11-21T10:58:39.636Z,986.44
2016-11-21T10:59:39.662Z,986.46
2016-11-21T11:00:39.677Z,986.48
2016-11-21T11:01:39.694Z,986.57
2016-11-21T11:02:39.713Z,986.62
2016-11-21T11:03:39.729Z,986.57
2016-11-21T11:04:39.745Z,986.64
2016-11-21T11:05:39.767Z,986.58
2016-11-21T11:06:39.783Z,986.52
2016-11-21T11:07:39.804Z,986.52
2016-11-21T11:08:39.825Z,986.49
2016-11-21T11:09:39.838Z,986.56
2016-11-21T11:10:39.859Z,986.56
2016-11-21T11:11:39.877Z,986.51
2016-11-21T11:12:39.896Z,986.51
2016-11-21T11:13:39.913Z,986.53
2016-11-21T11:14:39.934Z,986.59
2016-11-21T11:15:39.949Z,986.61
2016-11-21T11:16:39.968Z,986.66
2016-11-21T11:17:39.985Z,986.57
2016-11-21T11:18:40.003Z,986.61
2016-11-21T11:19:40.020Z,986.58
2016-11-21T11:20:40.039Z,986.55
2016-11-21T11:21:40.059Z,986.47
2016-11-21T11:22:40.077Z,986.44
2016-11-21T11:23:40.098Z,986.4
2016-11-21T11:24:40.115Z,986.32
2016-11-21T11:25:40.135Z,986.3
2016-11-21T11:26:40.152Z,986.21
2016-11-21T11:27:40.167Z,986.18
2016-11-21T11:28:40.183Z,986.22
2016-11-21T11:29:40.204Z,986.26
2016-11-21T11:30:40.224Z,986.23
2016-11-21T11:31:40.240Z,986.23
2016-11-21T11:32:40.261Z,986.23
2016-11-21T11:33:40.277Z,986.2
2016-11-21T11:34:40.295Z,986.1
2016-11-21T11:35:40.317Z,986
2016-11-21T11:36:40.334Z,985.97
2016-11-21T11:37:40.355Z,985.97
2016-11-21T11:38:40.375Z,986.02
2016-11-21T11:39:40.391Z,986.03
2016-11-21T11:40:40.409Z,985.97
2016-11-21T11:41:40.424Z,985.97
2016-11-21T11:42:40.440Z,985.96
2016-11-21T11:43:40.465Z,985.98
2016-11-21T11:44:40.481Z,986.01
2016-11-21T11:45:40.498Z,985.98
2016-11-21T11:46:40.515Z,985.97
2016-11-21T11:47:40.541Z,985.92
2016-11-21T11:48:40.553Z,985.88
2016-11-21T11:49:40.573Z,985.82
2016-11-21T11:50:40.591Z,985.78
2016-11-21T11:51:40.609Z,985.83
2016-11-21T11:52:40.629Z,985.95
2016-11-21T11:53:40.649Z,985.89
2016-11-21T11:54:40.667Z,985.81
2016-11-21T11:55:40.684Z,985.76
2016-11-21T11:56:40.704Z,985.76
2016-11-21T11:57:40.723Z,985.82
2016-11-21T11:58:40.742Z,985.8
2016-11-21T11:59:40.759Z,985.79
2016-11-21T12:00:40.780Z,985.81
2016-11-21T12:01:40.799Z,985.77
2016-11-21T12:02:40.816Z,985.79
2016-11-21T12:03:40.835Z,985.79
2016-11-21T12:04:40.857Z,985.76
2016-11-21T12:05:40.872Z,985.72
2016-11-21T12:06:40.893Z,985.73
2016-11-21T12:07:40.908Z,985.68
2016-11-21T12:08:40.929Z,985.66
2016-11-21T12:09:40.948Z,985.67
2016-11-21T12:10:40.969Z,985.69
2016-11-21T12:11:40.985Z,985.7
2016-11-21T12:12:41.002Z,985.71
2016-11-21T12:13:41.020Z,985.71
2016-11-21T12:14:41.040Z,985.69
2016-11-21T12:15:41.057Z,985.78
2016-11-21T12:16:41.080Z,985.68
2016-11-21T12:17:41.097Z,985.72
2016-11-21T12:18:41.115Z,985.73
2016-11-21T12:19:41.137Z,985.72
2016-11-21T12:20:41.153Z,985.72
2016-11-21T12:21:41.175Z,985.71
2016-11-21T12:22:41.188Z,985.71
2016-11-21T12:23:41.208Z,985.65
2016-11-21T12:24:41.228Z,985.64
2016-11-21T12:25:41.249Z,985.7
2016-11-21T12:26:41.265Z,985.69
2016-11-21T12:27:41.284Z,985.71
2016-11-21T12:28:41.306Z,985.73
2016-11-21T12:29:41.321Z,985.65
2016-11-21T12:30:41.341Z,985.7
2016-11-21T12:31:41.360Z,985.68
2016-11-21T12:32:41.380Z,985.69